Time;durP1;ratioP1;P1;durP2;ratioP2;P2;SDS_P1;SDS_P2;PMS_P1;PMS_P2;Temp;Humidity;BMP_temperature;BMP_pressure;BME280_temperature;BME280_humidity;BME280_pressure;Samples;Min_cycle;Max_cycle;Signal;HPM_P1;HPM_P2
2022/01/24 00:00:33;;;;;;;9.27;6.33;;;0.80;99.90;;;;;;4975950;28;20186;-79
2022/01/24 00:02:58;;;;;;;13.63;6.60;;;0.80;99.90;;;;;;4992728;28;20191;-81
2022/01/24 00:05:24;;;;;;;8.07;6.37;;;0.70;99.90;;;;;;4991157;28;20441;-80
2022/01/24 00:07:50;;;;;;;12.37;6.83;;;0.70;99.90;;;;;;4977178;28;20203;-79
2022/01/24 00:10:19;;;;;;;11.53;7.23;;;0.60;99.90;;;;;;4993409;28;20213;-80
2022/01/24 00:15:25;;;;;;;9.48;6.95;;;0.60;99.90;;;;;;4993846;28;20672;-79
2022/01/24 00:18:04;;;;;;;10.38;6.82;;;0.50;99.90;;;;;;4993795;28;20189;-80
2022/01/24 00:28:25;;;;;;;10.38;6.78;;;0.40;99.90;;;;;;4991885;28;20200;-79
2022/01/24 00:30:52;;;;;;;9.37;6.00;;;0.40;99.90;;;;;;4992133;28;20275;-77
2022/01/24 00:33:19;;;;;;;10.43;6.65;;;0.40;99.90;;;;;;4990776;28;20486;-79
2022/01/24 00:35:46;;;;;;;10.88;8.10;;;0.30;99.90;;;;;;4991227;28;20229;-78
2022/01/24 00:38:12;;;;;;;10.25;7.22;;;0.30;99.90;;;;;;4992831;28;20708;-79
2022/01/24 00:40:40;;;;;;;19.80;10.93;;;0.50;99.90;;;;;;4991557;28;20217;-78
2022/01/24 00:43:22;;;;;;;17.88;11.02;;;0.40;99.90;;;;;;4992836;28;21129;-78
2022/01/24 00:46:01;;;;;;;12.60;8.32;;;0.30;99.90;;;;;;4978173;28;20220;-79
2022/01/24 00:56:02;;;;;;;14.37;7.40;;;0.30;99.90;;;;;;4992619;28;20202;-78
2022/01/24 00:58:28;;;;;;;12.63;7.13;;;0.30;99.90;;;;;;5000339;28;20185;-79
2022/01/24 01:00:54;;;;;;;11.67;7.90;;;0.30;99.90;;;;;;4981887;28;20427;-78
2022/01/24 01:03:20;;;;;;;11.53;7.53;;;0.30;99.90;;;;;;4981988;28;20194;-78
2022/01/24 01:18:59;;;;;;;16.50;8.45;;;0.30;99.90;;;;;;4996095;28;20220;-81
2022/01/24 01:21:25;;;;;;;10.50;7.37;;;0.30;99.90;;;;;;4979785;28;20693;-80
2022/01/24 01:23:56;;;;;;;12.95;7.72;;;0.30;99.90;;;;;;4996188;28;20186;-81
2022/01/24 01:28:57;;;;;;;11.88;7.93;;;0.30;99.90;;;;;;4989722;28;20201;-79
2022/01/24 01:31:40;;;;;;;15.07;7.50;;;0.30;99.90;;;;;;4992440;28;20654;-79
2022/01/24 01:40:03;;;;;;;11.30;7.55;;;0.40;99.90;;;;;;4997796;28;20663;-79
2022/01/24 01:56:07;;;;;;;12.15;5.82;;;1.00;99.90;;;;;;4988811;28;20224;-80
2022/01/24 01:58:33;;;;;;;8.27;6.13;;;1.10;99.90;;;;;;4991549;28;20549;-79
2022/01/24 02:01:00;;;;;;;10.57;6.90;;;1.10;99.90;;;;;;4993473;28;20178;-80
2022/01/24 02:03:27;;;;;;;13.80;7.30;;;1.10;99.90;;;;;;4995468;28;20487;-81
2022/01/24 02:05:53;;;;;;;16.40;7.30;;;1.20;99.90;;;;;;4992490;28;20310;-80
2022/01/24 02:08:29;;;;;;;7.60;6.10;;;1.30;99.90;;;;;;4992366;28;20219;-79
2022/01/24 02:10:55;;;;;;;9.82;6.50;;;1.30;99.90;;;;;;4977329;28;20217;-79
2022/01/24 02:13:26;;;;;;;14.95;6.55;;;1.30;99.90;;;;;;4994699;28;20632;-80
2022/01/24 02:18:41;;;;;;;10.05;7.40;;;1.40;99.90;;;;;;4995217;28;20189;-81
2022/01/24 02:21:12;;;;;;;8.63;6.97;;;1.30;99.90;;;;;;4995318;28;20222;-79
2022/01/24 02:26:11;;;;;;;11.15;6.53;;;1.40;99.90;;;;;;4997520;28;20302;-80
2022/01/24 02:29:20;;;;;;;9.70;6.60;;;1.30;99.90;;;;;;4978569;28;20186;-81
2022/01/24 02:31:40;;;;;;;10.43;7.97;;;1.40;99.90;;;;;;4995821;28;20187;-80
2022/01/24 02:34:19;;;;;;;12.88;8.75;;;1.40;99.90;;;;;;4994533;28;20214;-80
2022/01/24 02:36:45;;;;;;;14.25;8.50;;;1.20;99.90;;;;;;4995323;28;20207;-79
2022/01/24 02:53:05;;;;;;;8.10;6.43;;;0.90;99.90;;;;;;4996369;28;20223;-78
2022/01/24 02:55:31;;;;;;;11.68;7.72;;;0.90;99.90;;;;;;4994006;28;20302;-80
2022/01/24 02:57:56;;;;;;;12.30;8.17;;;0.70;99.90;;;;;;4976763;28;20741;-79
2022/01/24 03:00:22;;;;;;;9.33;7.73;;;0.70;99.90;;;;;;4991127;28;20186;-80
2022/01/24 03:02:48;;;;;;;9.53;7.03;;;0.60;99.90;;;;;;4992532;28;20249;-80
2022/01/24 03:05:13;;;;;;;12.10;7.73;;;0.50;99.90;;;;;;4958090;28;20210;-79
2022/01/24 03:07:39;;;;;;;11.30;8.00;;;0.50;99.90;;;;;;4974270;28;20296;-79
2022/01/24 03:10:13;;;;;;;9.40;7.23;;;0.30;99.90;;;;;;4958519;28;20190;-77
2022/01/24 03:12:45;;;;;;;11.05;8.10;;;0.30;99.90;;;;;;4975088;28;20480;-78
2022/01/24 03:15:11;;;;;;;9.70;7.57;;;0.30;99.90;;;;;;4977776;28;20252;-79
2022/01/24 03:17:37;;;;;;;12.27;7.93;;;0.20;99.90;;;;;;4990872;28;20209;-79
2022/01/24 03:20:04;;;;;;;10.65;7.85;;;0.20;99.90;;;;;;4991302;28;20217;-80
2022/01/24 03:22:30;;;;;;;10.02;7.53;;;0.20;99.90;;;;;;4989691;28;20217;-80
2022/01/24 03:24:56;;;;;;;14.10;7.73;;;0.10;99.90;;;;;;4989797;28;20225;-80
2022/01/24 03:27:21;;;;;;;11.83;7.90;;;0.10;99.90;;;;;;4973794;28;20193;-79
2022/01/24 03:29:47;;;;;;;10.67;7.33;;;0.00;99.90;;;;;;4990482;28;20647;-80
2022/01/24 03:32:13;;;;;;;10.87;7.40;;;0.00;99.90;;;;;;4957943;28;20191;-80
2022/01/24 03:34:40;;;;;;;10.10;7.20;;;0.00;99.90;;;;;;4973949;28;20570;-80
2022/01/24 03:37:06;;;;;;;11.10;7.57;;;-0.20;99.90;;;;;;4974692;28;20182;-80
2022/01/24 03:39:33;;;;;;;12.23;7.90;;;-0.20;99.90;;;;;;4991607;28;20193;-79
2022/01/24 03:41:59;;;;;;;10.07;6.70;;;-0.20;99.90;;;;;;4989969;28;20241;-79
2022/01/24 03:44:27;;;;;;;13.93;7.70;;;-0.20;99.90;;;;;;4990680;28;20187;-81
2022/01/24 03:52:09;;;;;;;9.70;6.80;;;-0.20;99.90;;;;;;4954881;28;1134444;-78
2022/01/24 03:54:36;;;;;;;10.67;6.93;;;-0.30;99.90;;;;;;4995004;28;20426;-79
2022/01/24 03:57:03;;;;;;;7.95;6.18;;;-0.30;99.90;;;;;;4992131;28;20241;-78
2022/01/24 03:59:30;;;;;;;9.57;6.80;;;-0.30;99.90;;;;;;4991040;28;20194;-77
2022/01/24 04:01:57;;;;;;;9.45;7.07;;;-0.40;99.90;;;;;;4990737;28;20190;-78
2022/01/24 04:04:23;;;;;;;9.60;6.63;;;-0.40;99.90;;;;;;4990534;28;20186;-77
2022/01/24 04:06:49;;;;;;;11.40;6.93;;;-0.40;99.90;;;;;;4991458;28;20202;-78
2022/01/24 04:09:14;;;;;;;9.10;6.93;;;-0.40;99.90;;;;;;4991508;28;20669;-77
2022/01/24 04:11:41;;;;;;;8.50;6.80;;;-0.50;99.90;;;;;;4992959;28;20189;-78
2022/01/24 04:14:56;;;;;;;12.35;7.00;;;-0.50;99.90;;;;;;4994661;28;20228;-78
2022/01/24 04:17:19;;;;;;;9.20;6.65;;;-0.60;99.90;;;;;;4990589;28;20675;-78
2022/01/24 04:22:28;;;;;;;12.35;7.65;;;-0.70;99.90;;;;;;4993826;28;20196;-78
2022/01/24 04:25:02;;;;;;;9.40;6.88;;;-0.70;99.90;;;;;;4994235;28;20661;-79
2022/01/24 04:27:29;;;;;;;9.48;6.72;;;-0.60;99.90;;;;;;4995900;28;20186;-78
2022/01/24 04:29:55;;;;;;;10.40;7.78;;;-0.70;99.90;;;;;;4996463;28;20261;-78
2022/01/24 04:32:21;;;;;;;10.70;7.05;;;-0.70;99.90;;;;;;4997558;28;20221;-78
2022/01/24 04:34:48;;;;;;;10.93;7.50;;;-0.70;99.90;;;;;;4997705;28;20717;-79
2022/01/24 04:37:15;;;;;;;9.15;7.13;;;-0.70;99.90;;;;;;4992117;28;20524;-78
2022/01/24 04:39:41;;;;;;;11.00;7.50;;;-0.70;99.90;;;;;;4991570;28;20249;-78
2022/01/24 04:42:11;;;;;;;13.50;8.68;;;-0.60;99.90;;;;;;4992095;28;20196;-77
2022/01/24 04:44:56;;;;;;;14.57;7.85;;;-0.70;99.90;;;;;;4976392;28;20281;-78
2022/01/24 04:47:31;;;;;;;14.68;9.10;;;-0.80;99.90;;;;;;4992231;28;20213;-77
2022/01/24 04:52:56;;;;;;;12.50;8.10;;;-0.90;99.90;;;;;;4990914;28;20225;-75
2022/01/24 04:55:22;;;;;;;8.95;6.68;;;-0.90;99.90;;;;;;4990535;28;20213;-75
2022/01/24 04:57:48;;;;;;;14.90;7.70;;;-0.90;99.90;;;;;;4990588;28;20182;-75
2022/01/24 05:00:14;;;;;;;9.20;7.10;;;-0.80;99.90;;;;;;4989936;28;20829;-75
2022/01/24 05:02:40;;;;;;;10.57;7.63;;;-0.90;99.90;;;;;;4989848;28;20685;-75
2022/01/24 05:05:09;;;;;;;11.00;7.90;;;-0.80;99.90;;;;;;4989749;28;20499;-75
2022/01/24 05:07:34;;;;;;;11.48;7.82;;;-0.90;99.90;;;;;;4989855;28;20181;-75
2022/01/24 05:10:09;;;;;;;11.30;7.70;;;-0.90;99.90;;;;;;4990123;28;20240;-75
2022/01/24 05:23:37;;;;;;;13.07;8.27;;;-0.90;99.90;;;;;;4988451;28;20264;-75
2022/01/24 05:26:06;;;;;;;9.80;8.10;;;-0.80;99.90;;;;;;4987841;28;20259;-75
2022/01/24 05:28:33;;;;;;;11.90;8.05;;;-0.80;99.90;;;;;;4987979;28;20205;-75
2022/01/24 05:31:01;;;;;;;15.80;9.55;;;-0.90;99.90;;;;;;4987816;28;20190;-75
2022/01/24 05:33:27;;;;;;;13.20;10.48;;;-0.80;99.90;;;;;;4986175;28;20297;-75
2022/01/24 05:35:53;;;;;;;13.95;10.38;;;-0.80;99.90;;;;;;4987652;28;20251;-75
2022/01/24 05:38:22;;;;;;;22.70;14.43;;;-0.80;99.90;;;;;;4987801;28;20186;-75
2022/01/24 05:40:48;;;;;;;18.10;13.05;;;-0.80;99.90;;;;;;4988216;28;20200;-75
2022/01/24 05:43:13;;;;;;;21.58;14.70;;;-0.80;99.90;;;;;;4986749;28;20189;-75
2022/01/24 05:45:41;;;;;;;20.63;13.53;;;-0.70;99.90;;;;;;4988076;28;20201;-75
2022/01/24 05:48:07;;;;;;;17.55;12.82;;;-0.60;99.90;;;;;;4988096;28;20182;-77
2022/01/24 05:50:33;;;;;;;16.00;10.90;;;-0.70;99.90;;;;;;4986299;28;20194;-76
2022/01/24 05:52:58;;;;;;;16.93;11.50;;;-0.70;99.90;;;;;;4985995;28;20840;-75
2022/01/24 05:55:24;;;;;;;13.10;10.00;;;-0.70;99.90;;;;;;4986285;28;20622;-75
2022/01/24 05:57:52;;;;;;;12.10;9.67;;;-0.70;99.90;;;;;;4988112;28;20771;-75
2022/01/24 06:00:18;;;;;;;24.48;14.68;;;-0.70;99.90;;;;;;4986404;28;20719;-75
2022/01/24 06:02:43;;;;;;;20.17;13.80;;;-0.70;99.90;;;;;;4987500;28;20364;-75
2022/01/24 06:05:09;;;;;;;23.20;13.33;;;-0.70;99.90;;;;;;4987607;28;20206;-75
2022/01/24 06:07:35;;;;;;;16.57;12.10;;;-0.60;99.90;;;;;;4987656;28;20239;-75
2022/01/24 06:10:01;;;;;;;17.73;11.30;;;-0.60;99.90;;;;;;4986751;28;20233;-75
2022/01/24 06:12:27;;;;;;;18.10;11.20;;;-0.60;99.90;;;;;;4988441;28;20236;-75
2022/01/24 06:14:53;;;;;;;15.38;10.98;;;-0.50;99.90;;;;;;4988466;28;20178;-74
2022/01/24 06:17:18;;;;;;;16.97;11.70;;;-0.50;99.90;;;;;;4988440;28;20217;-74
2022/01/24 06:19:47;;;;;;;16.50;12.03;;;-0.40;99.90;;;;;;4988458;28;20240;-75
2022/01/24 06:22:12;;;;;;;14.02;10.88;;;-0.40;99.90;;;;;;4988162;28;20267;-74
2022/01/24 06:24:38;;;;;;;17.97;11.60;;;-0.30;99.90;;;;;;4970593;28;20197;-75
2022/01/24 06:27:04;;;;;;;16.13;11.17;;;-0.30;99.90;;;;;;4988327;28;20247;-75
2022/01/24 06:29:30;;;;;;;16.50;11.40;;;-0.20;99.90;;;;;;4988397;28;20200;-75
2022/01/24 06:31:55;;;;;;;12.67;10.07;;;-0.10;99.90;;;;;;4986889;28;20417;-75
2022/01/24 06:34:21;;;;;;;14.27;10.40;;;-0.10;99.90;;;;;;4988247;28;20209;-75
2022/01/24 06:36:47;;;;;;;16.70;10.83;;;-0.10;99.90;;;;;;4988147;28;20212;-75
2022/01/24 06:39:14;;;;;;;18.13;11.33;;;0.00;99.90;;;;;;4987635;28;20193;-75
2022/01/24 06:41:42;;;;;;;16.10;12.02;;;0.10;99.90;;;;;;4985997;28;20200;-75
2022/01/24 06:44:08;;;;;;;15.48;11.05;;;0.10;99.90;;;;;;4987422;28;20636;-75
2022/01/24 06:46:34;;;;;;;16.40;12.50;;;0.10;99.90;;;;;;4987846;28;20205;-75
2022/01/24 06:49:01;;;;;;;18.93;11.90;;;0.20;99.90;;;;;;4990839;28;20206;-75
2022/01/24 06:51:26;;;;;;;17.02;12.75;;;0.20;99.90;;;;;;4973543;28;20182;-75
2022/01/24 06:53:52;;;;;;;15.17;11.40;;;0.30;99.90;;;;;;4991098;28;20800;-75
2022/01/24 06:56:19;;;;;;;15.98;11.88;;;0.40;99.90;;;;;;4991413;28;20193;-76
2022/01/24 06:58:44;;;;;;;13.95;10.70;;;0.40;99.90;;;;;;4991614;28;20189;-75
2022/01/24 07:01:10;;;;;;;14.50;11.60;;;0.50;99.90;;;;;;4992103;28;20725;-76
2022/01/24 07:03:36;;;;;;;14.50;11.23;;;0.60;99.90;;;;;;4990557;28;20425;-76
2022/01/24 07:06:02;;;;;;;17.20;12.17;;;0.60;99.90;;;;;;4991369;28;20622;-76
2022/01/24 07:08:27;;;;;;;15.23;11.15;;;0.70;99.90;;;;;;4991340;28;20229;-75
2022/01/24 07:10:53;;;;;;;13.60;10.60;;;0.90;99.90;;;;;;4990759;28;20218;-74
2022/01/24 07:13:22;;;;;;;14.50;10.63;;;1.00;99.90;;;;;;5001858;28;20222;-74
2022/01/24 07:15:53;;;;;;;15.20;10.30;;;1.10;99.90;;;;;;4990456;28;20454;-75
2022/01/24 07:20:59;;;;;;;17.73;11.13;;;1.30;99.90;;;;;;4989959;28;20181;-76
2022/01/24 07:23:25;;;;;;;22.65;13.13;;;1.30;99.90;;;;;;4991278;28;20237;-76
2022/01/24 07:25:51;;;;;;;18.23;12.80;;;1.40;99.90;;;;;;4991022;28;20206;-76
2022/01/24 07:28:17;;;;;;;19.30;13.27;;;1.40;99.90;;;;;;4990789;28;20513;-75
2022/01/24 07:30:44;;;;;;;15.17;10.50;;;1.40;99.90;;;;;;4989317;28;20225;-76
2022/01/24 07:33:10;;;;;;;13.90;10.20;;;1.40;99.90;;;;;;4990774;28;20584;-75
2022/01/24 07:35:36;;;;;;;12.95;10.00;;;1.50;99.90;;;;;;4989100;28;20213;-76
2022/01/24 07:38:05;;;;;;;10.87;8.77;;;1.60;99.90;;;;;;4990769;28;20327;-76
2022/01/24 07:40:37;;;;;;;10.10;8.70;;;1.60;99.90;;;;;;4990848;28;20600;-76
2022/01/24 07:43:15;;;;;;;9.73;8.50;;;1.70;99.90;;;;;;4990825;28;20199;-76
2022/01/24 07:45:46;;;;;;;10.40;8.40;;;1.80;99.90;;;;;;4990816;28;20205;-76
2022/01/24 07:48:13;;;;;;;14.30;9.38;;;1.80;99.90;;;;;;4989263;28;20197;-75
2022/01/24 07:50:41;;;;;;;14.52;10.75;;;1.90;99.90;;;;;;4990545;28;20550;-76
2022/01/24 07:53:12;;;;;;;16.10;10.63;;;1.90;99.90;;;;;;4990483;28;20333;-76
2022/01/24 07:55:38;;;;;;;10.07;8.60;;;1.90;99.90;;;;;;4989150;28;20202;-75
2022/01/24 07:58:04;;;;;;;10.48;7.50;;;1.90;99.90;;;;;;4971439;28;20190;-75
2022/01/24 08:00:30;;;;;;;10.20;8.03;;;2.00;99.90;;;;;;4990255;28;20179;-75
2022/01/24 08:02:57;;;;;;;10.73;8.07;;;2.10;99.90;;;;;;4972718;28;20426;-75
2022/01/24 08:05:23;;;;;;;12.38;8.52;;;2.10;99.90;;;;;;4990379;28;20223;-75
2022/01/24 08:07:49;;;;;;;12.18;8.00;;;2.20;99.90;;;;;;4990140;28;20684;-76
2022/01/24 08:10:14;;;;;;;11.17;8.20;;;2.30;99.90;;;;;;4988539;28;20269;-76
2022/01/24 08:12:42;;;;;;;9.80;6.30;;;2.40;99.90;;;;;;4972524;28;20220;-76
2022/01/24 08:15:11;;;;;;;9.57;7.13;;;2.40;99.90;;;;;;4988811;28;20226;-76
2022/01/24 08:17:37;;;;;;;7.32;6.55;;;2.60;99.90;;;;;;4990982;28;20187;-76
2022/01/24 08:20:03;;;;;;;8.20;7.10;;;3.10;99.90;;;;;;4988767;28;20661;-76
2022/01/24 08:22:28;;;;;;;7.53;6.10;;;3.30;99.90;;;;;;4990210;28;20226;-76
2022/01/24 08:24:54;;;;;;;6.47;5.83;;;4.10;99.90;;;;;;4990045;28;20454;-75
2022/01/24 08:27:20;;;;;;;10.00;5.70;;;4.20;99.90;;;;;;4988476;28;20197;-76
2022/01/24 08:29:48;;;;;;;6.60;5.80;;;4.20;99.90;;;;;;4990004;28;20294;-76
2022/01/24 08:32:15;;;;;;;7.95;6.32;;;4.50;99.90;;;;;;4988271;28;20212;-76
2022/01/24 08:34:40;;;;;;;10.60;6.40;;;4.70;99.90;;;;;;4989457;28;20190;-75
2022/01/24 08:37:06;;;;;;;16.13;11.60;;;5.10;99.90;;;;;;4989200;28;20569;-76
2022/01/24 08:39:32;;;;;;;22.10;12.50;;;5.50;99.90;;;;;;4989507;28;20624;-77
2022/01/24 08:47:29;;;;;;;16.83;12.60;;;10.40;97.10;;;;;;4988105;28;20469;-74
2022/01/24 08:49:56;;;;;;;17.43;13.70;;;11.30;94.40;;;;;;4989159;28;20424;-74
2022/01/24 08:52:22;;;;;;;14.40;10.97;;;12.50;90.50;;;;;;4988704;28;20498;-76
2022/01/24 08:54:48;;;;;;;5.90;5.30;;;12.70;86.10;;;;;;4988884;28;20415;-76
2022/01/24 08:57:14;;;;;;;6.00;5.40;;;13.10;81.90;;;;;;4988907;28;20926;-76
2022/01/24 08:59:41;;;;;;;5.90;5.40;;;13.40;78.50;;;;;;4989029;28;20423;-75
2022/01/24 09:02:07;;;;;;;4.67;4.27;;;14.10;78.70;;;;;;4987380;28;20426;-75
2022/01/24 09:04:33;;;;;;;6.40;5.70;;;14.90;74.70;;;;;;4988915;28;20426;-75
2022/01/24 09:07:03;;;;;;;6.67;6.07;;;15.20;69.60;;;;;;4988725;28;20442;-76
2022/01/24 09:09:34;;;;;;;4.40;4.10;;;15.30;69.10;;;;;;4987082;28;20507;-75
2022/01/24 09:12:01;;;;;;;4.80;4.47;;;16.00;65.70;;;;;;4988418;28;20450;-75
2022/01/24 09:14:26;;;;;;;5.30;4.90;;;16.50;62.70;;;;;;4987465;28;20928;-75
2022/01/24 09:16:52;;;;;;;4.80;4.07;;;16.30;60.40;;;;;;4988453;28;20449;-75
2022/01/24 09:19:18;;;;;;;5.80;4.40;;;16.40;61.50;;;;;;4986868;28;20187;-76
2022/01/24 09:21:43;;;;;;;5.40;4.90;;;16.60;59.50;;;;;;4988390;28;20178;-76
2022/01/24 09:24:09;;;;;;;5.00;4.60;;;17.40;59.40;;;;;;4988783;28;20184;-76
2022/01/24 09:26:35;;;;;;;7.60;5.53;;;17.60;57.20;;;;;;4988337;28;20775;-77
2022/01/24 09:29:00;;;;;;;4.87;4.43;;;16.90;56.40;;;;;;4988671;28;20662;-75
2022/01/24 09:31:26;;;;;;;6.30;5.77;;;16.60;57.40;;;;;;4987016;28;20355;-75
2022/01/24 09:33:53;;;;;;;4.70;4.23;;;16.40;57.70;;;;;;4986840;28;20227;-75
2022/01/24 09:36:19;;;;;;;7.07;5.30;;;16.30;56.90;;;;;;4988263;28;21067;-75
2022/01/24 09:38:45;;;;;;;4.27;3.63;;;15.60;58.10;;;;;;4988156;28;20421;-75
2022/01/24 09:41:15;;;;;;;4.70;4.30;;;14.20;60.00;;;;;;4987262;28;20190;-75
2022/01/24 09:43:45;;;;;;;3.73;3.43;;;13.20;67.60;;;;;;4988525;28;21047;-74
2022/01/24 09:46:12;;;;;;;3.33;3.07;;;14.10;68.10;;;;;;4987006;28;20612;-73
2022/01/24 09:48:39;;;;;;;5.20;3.40;;;13.90;64.10;;;;;;4971030;28;20903;-74
2022/01/24 09:51:06;;;;;;;5.40;3.90;;;15.10;63.70;;;;;;4988796;28;20475;-75
2022/01/24 09:53:33;;;;;;;5.57;3.63;;;16.00;60.60;;;;;;4987156;28;20478;-75
2022/01/24 09:56:03;;;;;;;4.07;3.77;;;16.60;60.10;;;;;;4988786;28;20495;-75
2022/01/24 09:58:29;;;;;;;2.93;2.73;;;16.80;58.60;;;;;;4987259;28;21265;-74
2022/01/24 10:00:55;;;;;;;4.10;3.70;;;16.30;56.10;;;;;;4988747;28;20429;-75
2022/01/24 10:03:24;;;;;;;3.47;3.27;;;16.20;55.90;;;;;;4988910;28;20433;-75
2022/01/24 10:05:56;;;;;;;3.20;3.00;;;17.10;57.10;;;;;;4988365;28;20202;-74
2022/01/24 10:08:24;;;;;;;3.43;3.23;;;18.50;56.50;;;;;;4988299;28;21135;-75
2022/01/24 10:10:59;;;;;;;3.37;3.17;;;19.10;54.10;;;;;;4987787;28;20427;-75
2022/01/24 10:16:44;;;;;;;3.83;3.53;;;18.10;53.60;;;;;;4986872;28;20466;-76
2022/01/24 10:19:19;;;;;;;4.17;3.87;;;18.30;53.00;;;;;;4986344;28;20424;-74
2022/01/24 10:21:45;;;;;;;4.53;4.07;;;18.00;52.30;;;;;;4989843;28;20423;-75
2022/01/24 10:24:28;;;;;;;3.83;3.53;;;16.50;52.30;;;;;;4991474;28;20423;-76
2022/01/24 10:27:23;;;;;;;4.00;3.60;;;16.10;56.30;;;;;;4989914;28;20249;-76
2022/01/24 10:29:53;;;;;;;4.10;3.80;;;16.60;56.30;;;;;;4991491;28;20915;-74
2022/01/24 10:32:44;;;;;;;3.30;3.00;;;16.60;56.10;;;;;;4973793;28;20482;-75
2022/01/24 10:35:45;;;;;;;3.50;3.20;;;16.60;55.60;;;;;;4989781;28;20486;-75
2022/01/24 10:38:53;;;;;;;4.63;3.37;;;17.60;54.80;;;;;;4987466;28;20504;-74
2022/01/24 10:43:46;;;;;;;5.00;4.30;;;17.50;55.20;;;;;;4990448;28;20429;-76
2022/01/24 10:46:13;;;;;;;5.33;4.50;;;17.90;53.10;;;;;;4991493;28;20554;-76
2022/01/24 10:48:43;;;;;;;4.37;3.77;;;17.50;53.90;;;;;;4991354;28;20449;-76
2022/01/24 10:51:13;;;;;;;3.70;2.97;;;18.10;54.90;;;;;;4991084;28;20414;-75
2022/01/24 10:53:54;;;;;;;4.50;3.03;;;16.80;52.80;;;;;;4989600;28;20557;-75
2022/01/24 10:56:36;;;;;;;4.00;3.60;;;16.30;54.50;;;;;;4991449;28;20480;-76
2022/01/24 10:59:05;;;;;;;4.03;3.17;;;15.60;55.90;;;;;;4991203;28;20469;-77
2022/01/24 11:01:31;;;;;;;3.60;3.30;;;15.80;56.40;;;;;;4991425;28;20458;-75
2022/01/24 11:04:03;;;;;;;3.23;2.93;;;15.80;57.40;;;;;;4991053;28;21025;-75
2022/01/24 11:06:32;;;;;;;5.13;3.67;;;14.50;57.40;;;;;;4990658;28;20865;-74
2022/01/24 11:09:14;;;;;;;4.60;3.20;;;14.90;59.50;;;;;;4990872;28;20492;-74
2022/01/24 11:11:41;;;;;;;3.57;3.27;;;15.30;58.20;;;;;;4990726;28;20424;-75
2022/01/24 11:14:09;;;;;;;3.70;3.40;;;16.20;60.30;;;;;;4990574;28;20570;-76
2022/01/24 11:16:38;;;;;;;4.60;3.30;;;15.70;57.30;;;;;;4991003;28;20436;-76
2022/01/24 11:19:12;;;;;;;3.00;2.80;;;14.50;57.50;;;;;;4990436;28;21049;-75
2022/01/24 11:21:39;;;;;;;3.17;2.87;;;14.30;61.90;;;;;;4990586;28;20519;-76
2022/01/24 11:24:07;;;;;;;4.77;3.60;;;14.60;59.60;;;;;;4990535;28;20447;-75
2022/01/24 11:26:34;;;;;;;3.83;3.23;;;16.00;59.70;;;;;;4990550;28;20452;-76
2022/01/24 11:29:00;;;;;;;3.57;3.27;;;15.80;57.20;;;;;;4990281;28;20476;-76
2022/01/24 11:31:33;;;;;;;4.40;3.50;;;15.20;57.90;;;;;;4989998;28;20421;-75
2022/01/24 11:34:15;;;;;;;3.70;3.30;;;15.40;58.40;;;;;;4990203;28;20263;-76
2022/01/24 11:36:42;;;;;;;4.67;4.10;;;15.60;57.50;;;;;;4990360;28;20778;-76
2022/01/24 11:39:08;;;;;;;5.57;3.67;;;15.40;59.10;;;;;;4989945;28;20557;-76
2022/01/24 11:41:38;;;;;;;3.00;2.80;;;15.00;59.10;;;;;;4990355;28;21106;-76
2022/01/24 11:44:12;;;;;;;7.07;3.20;;;15.00;59.70;;;;;;4990202;28;20420;-76
2022/01/24 11:46:58;;;;;;;3.60;2.70;;;15.50;58.60;;;;;;4989814;28;20499;-76
2022/01/24 11:49:27;;;;;;;3.87;3.30;;;15.20;60.00;;;;;;4989896;28;20417;-75
2022/01/24 11:52:16;;;;;;;4.80;3.03;;;14.70;58.40;;;;;;4989366;28;20487;-75
2022/01/24 11:57:24;;;;;;;3.57;3.27;;;15.00;60.10;;;;;;4990152;28;20417;-76
2022/01/24 12:00:05;;;;;;;3.77;3.13;;;15.50;59.70;;;;;;4990006;28;20483;-77
2022/01/24 12:02:38;;;;;;;2.90;2.70;;;15.10;59.10;;;;;;4992999;28;20413;-77
2022/01/24 12:05:15;;;;;;;4.70;3.40;;;14.80;59.30;;;;;;4993216;28;20477;-77
2022/01/24 12:07:47;;;;;;;5.03;3.33;;;14.70;59.60;;;;;;4991574;28;21013;-77
2022/01/24 12:10:27;;;;;;;4.13;2.83;;;14.40;59.30;;;;;;4991392;28;20429;-76
2022/01/24 12:13:37;;;;;;;4.70;3.10;;;14.70;60.00;;;;;;4992099;28;20503;-77
2022/01/24 12:16:07;;;;;;;3.20;3.00;;;14.90;60.70;;;;;;4990880;28;20460;-79
2022/01/24 12:18:34;;;;;;;3.50;3.20;;;14.80;59.20;;;;;;4988654;28;20482;-76
2022/01/24 12:21:05;;;;;;;5.00;3.57;;;14.50;61.90;;;;;;4988293;28;20432;-76
2022/01/24 12:23:44;;;;;;;4.37;3.10;;;15.40;59.60;;;;;;4988012;28;20544;-75
2022/01/24 12:26:10;;;;;;;6.33;5.30;;;14.50;59.70;;;;;;4987866;28;20543;-76
2022/01/24 12:28:41;;;;;;;3.77;3.33;;;14.10;62.60;;;;;;4988116;28;20447;-75
2022/01/24 12:31:22;;;;;;;3.90;3.50;;;13.60;62.70;;;;;;4989179;28;20189;-75
2022/01/24 12:34:13;;;;;;;4.27;3.87;;;13.90;63.50;;;;;;4989073;28;20471;-76
2022/01/24 12:36:39;;;;;;;4.83;4.20;;;13.50;63.50;;;;;;4986369;28;20563;-75
2022/01/24 12:39:15;;;;;;;3.37;3.07;;;14.10;65.30;;;;;;4988928;28;20960;-75
2022/01/24 12:41:47;;;;;;;4.40;4.00;;;13.70;63.20;;;;;;4989252;28;20197;-75
2022/01/24 12:47:18;;;;;;;8.03;4.03;;;13.40;66.20;;;;;;4987480;28;20456;-76
2022/01/24 12:49:46;;;;;;;4.53;3.93;;;13.70;64.10;;;;;;4989408;28;20475;-75
2022/01/24 12:52:15;;;;;;;4.87;3.50;;;13.90;65.10;;;;;;4989274;28;20492;-75
2022/01/24 12:54:44;;;;;;;4.30;3.47;;;13.80;65.30;;;;;;4989146;28;20563;-75
2022/01/24 12:57:14;;;;;;;9.77;4.23;;;13.60;64.50;;;;;;4989346;28;20421;-75
2022/01/24 13:00:01;;;;;;;4.10;3.40;;;13.80;65.20;;;;;;4989712;28;20496;-73
2022/01/24 13:02:32;;;;;;;5.60;3.73;;;13.20;65.00;;;;;;4989440;28;20417;-75
2022/01/24 13:05:08;;;;;;;6.03;4.40;;;13.60;67.30;;;;;;4989697;28;20425;-74
2022/01/24 13:07:36;;;;;;;4.97;4.30;;;13.10;65.40;;;;;;4989552;28;20511;-76
2022/01/24 13:10:08;;;;;;;5.50;4.60;;;12.90;68.60;;;;;;4989256;28;20511;-75
2022/01/24 13:12:35;;;;;;;6.87;3.50;;;12.60;68.30;;;;;;4989144;28;20424;-76
2022/01/24 13:15:07;;;;;;;4.50;2.90;;;12.80;69.50;;;;;;4989384;28;20435;-76
2022/01/24 13:23:02;;;;;;;4.77;3.40;;;13.50;67.20;;;;;;4989817;28;20487;-75
2022/01/24 13:25:37;;;;;;;5.23;3.20;;;13.60;67.00;;;;;;4989998;28;20456;-75
2022/01/24 13:28:04;;;;;;;9.03;3.87;;;13.50;65.40;;;;;;4989958;28;20479;-75
2022/01/24 13:30:38;;;;;;;6.03;4.63;;;13.10;66.30;;;;;;4989593;28;20654;-74
2022/01/24 13:33:05;;;;;;;15.27;9.97;;;13.10;69.80;;;;;;4989029;28;20472;-75
2022/01/24 13:36:00;;;;;;;14.10;5.83;;;13.80;68.10;;;;;;4989101;28;20478;-75
2022/01/24 13:38:41;;;;;;;11.00;6.70;;;13.80;66.40;;;;;;4988418;28;20552;-76
2022/01/24 13:41:10;;;;;;;3.60;3.20;;;14.10;65.70;;;;;;4988929;28;20495;-76
2022/01/24 13:43:45;;;;;;;5.50;3.47;;;13.60;62.80;;;;;;4988997;28;20428;-76
2022/01/24 13:46:23;;;;;;;5.23;3.13;;;12.90;67.80;;;;;;4988796;28;20591;-76
2022/01/24 13:48:59;;;;;;;3.57;3.27;;;12.80;66.90;;;;;;4989244;28;20770;-76
2022/01/24 13:51:36;;;;;;;4.73;3.23;;;13.00;67.70;;;;;;4988931;28;20510;-75
2022/01/24 13:54:05;;;;;;;4.23;3.60;;;12.60;66.50;;;;;;4988786;28;20514;-75
2022/01/24 13:56:34;;;;;;;7.00;3.50;;;12.40;67.50;;;;;;4992219;28;20545;-74
2022/01/24 13:59:20;;;;;;;4.00;3.07;;;12.60;66.60;;;;;;4992809;28;20474;-75
2022/01/24 14:02:02;;;;;;;3.90;3.60;;;12.60;69.90;;;;;;4991240;28;20806;-76
2022/01/24 14:04:30;;;;;;;6.90;3.37;;;12.30;74.20;;;;;;4992722;28;20505;-76
2022/01/24 14:06:59;;;;;;;6.00;3.67;;;11.80;75.50;;;;;;4992444;28;20478;-76
2022/01/24 14:09:53;;;;;;;4.63;3.73;;;11.50;75.30;;;;;;4992538;28;20449;-75
2022/01/24 14:12:23;;;;;;;8.30;4.10;;;11.00;79.50;;;;;;4989569;28;20439;-76
2022/01/24 14:15:25;;;;;;;6.87;4.77;;;10.50;81.80;;;;;;4992043;28;20945;-74
2022/01/24 14:18:19;;;;;;;5.70;4.13;;;10.20;85.60;;;;;;4992123;28;20518;-75
2022/01/24 14:20:37;;;;;;;3.43;3.13;;;10.00;89.20;;;;;;4992291;28;20510;-74
2022/01/24 14:23:03;;;;;;;5.07;4.57;;;10.00;90.10;;;;;;4990949;28;20570;-76
2022/01/24 14:25:31;;;;;;;5.50;3.70;;;10.40;87.60;;;;;;4992255;28;21039;-75
2022/01/24 14:28:07;;;;;;;7.83;4.40;;;10.50;85.30;;;;;;4992288;28;20530;-76
2022/01/24 14:30:41;;;;;;;5.63;3.80;;;10.50;84.10;;;;;;4992252;28;20437;-75
2022/01/24 14:33:14;;;;;;;5.00;4.00;;;10.50;84.70;;;;;;4992127;28;20461;-75
2022/01/24 14:36:17;;;;;;;9.90;5.00;;;10.40;85.30;;;;;;4991804;28;20882;-75
2022/01/24 14:38:53;;;;;;;4.73;3.50;;;10.30;86.60;;;;;;4991907;28;20425;-75
2022/01/24 14:41:28;;;;;;;3.33;2.97;;;9.70;90.80;;;;;;4991725;28;20417;-75
2022/01/24 14:46:40;;;;;;;7.90;5.07;;;9.00;92.60;;;;;;4991517;28;20495;-75
2022/01/24 14:49:15;;;;;;;6.57;4.70;;;8.50;93.50;;;;;;4991014;28;20422;-75
2022/01/24 14:51:45;;;;;;;8.07;3.87;;;8.30;94.70;;;;;;4989554;28;20436;-75
2022/01/24 14:54:17;;;;;;;4.50;3.97;;;8.10;95.70;;;;;;4989838;28;21075;-75
2022/01/24 14:56:47;;;;;;;6.53;3.97;;;7.80;96.20;;;;;;4989885;28;20999;-75
2022/01/24 14:59:13;;;;;;;5.30;3.27;;;7.50;97.20;;;;;;4991696;28;20427;-73